createdAt,value
2017-01-14T00:00:44.830Z,0
2017-01-14T00:01:45.287Z,0
2017-01-14T00:02:45.133Z,0
2017-01-14T00:03:45.481Z,0
2017-01-14T00:04:45.064Z,0
2017-01-14T00:05:45.614Z,0
2017-01-14T00:06:44.968Z,0
2017-01-14T00:07:45.304Z,0
2017-01-14T00:08:45.259Z,0
2017-01-14T00:09:44.644Z,0
2017-01-14T00:10:44.964Z,0
2017-01-14T00:11:45.259Z,0
2017-01-14T00:12:44.433Z,0
2017-01-14T00:13:45.057Z,0
2017-01-14T00:14:44.633Z,0
2017-01-14T00:15:44.584Z,0
2017-01-14T00:16:44.995Z,0
2017-01-14T00:17:44.897Z,0
2017-01-14T00:18:44.441Z,0
2017-01-14T00:19:44.780Z,0
2017-01-14T00:20:44.381Z,0
2017-01-14T00:21:44.709Z,0
2017-01-14T00:22:44.776Z,0
2017-01-14T00:23:44.229Z,0
2017-01-14T00:24:44.300Z,0
2017-01-14T00:25:44.579Z,0
2017-01-14T00:26:44.577Z,0
2017-01-14T00:27:43.674Z,0
2017-01-14T00:28:43.723Z,0
2017-01-14T00:29:44.417Z,0
2017-01-14T00:30:44.313Z,0
2017-01-14T00:31:44.258Z,0
2017-01-14T00:32:44.337Z,0
2017-01-14T00:33:43.796Z,0
2017-01-14T00:34:43.504Z,0
2017-01-14T00:35:43.739Z,0
2017-01-14T00:36:44.272Z,0
2017-01-14T00:37:43.244Z,0
2017-01-14T00:38:44.123Z,0
2017-01-14T00:39:43.596Z,0
2017-01-14T00:40:43.502Z,0
2017-01-14T00:41:43.466Z,0
2017-01-14T00:42:43.411Z,0
2017-01-14T00:43:43.375Z,0
2017-01-14T00:44:43.841Z,0
2017-01-14T00:45:42.633Z,0
2017-01-14T00:46:43.243Z,0
2017-01-14T00:47:42.811Z,0
2017-01-14T00:48:43.794Z,0
2017-01-14T00:49:42.730Z,0
2017-01-14T00:50:43.456Z,0
2017-01-14T00:51:43.034Z,0
2017-01-14T00:52:43.390Z,0
2017-01-14T00:53:42.556Z,0
2017-01-14T00:54:43.280Z,0
2017-01-14T00:55:43.236Z,0
2017-01-14T00:56:42.637Z,0
2017-01-14T00:57:42.765Z,0
2017-01-14T00:58:42.729Z,0
2017-01-14T00:59:42.299Z,0
2017-01-14T01:00:42.308Z,0
2017-01-14T01:01:43.032Z,0
2017-01-14T01:02:41.843Z,0
2017-01-14T01:03:42.127Z,0
2017-01-14T01:04:42.848Z,0
2017-01-14T01:05:42.046Z,0
2017-01-14T01:06:42.768Z,0
2017-01-14T01:07:42.785Z,0
2017-01-14T01:08:42.813Z,0
2017-01-14T01:09:41.871Z,0
2017-01-14T01:10:41.957Z,0
2017-01-14T01:11:42.173Z,0
2017-01-14T01:12:42.570Z,0
2017-01-14T01:13:42.784Z,0
2017-01-14T01:14:42.457Z,0
2017-01-14T01:15:41.637Z,0
2017-01-14T01:16:41.953Z,0
2017-01-14T01:17:41.915Z,0
2017-01-14T01:18:42.095Z,0
2017-01-14T01:19:41.445Z,0
2017-01-14T01:20:41.902Z,0
2017-01-14T01:21:42.229Z,0
2017-01-14T01:22:42.084Z,0
2017-01-14T01:23:41.269Z,0
2017-01-14T01:24:41.225Z,0
2017-01-14T01:25:41.700Z,0
2017-01-14T01:27:41.602Z,0
2017-01-14T01:28:41.940Z,0
2017-01-14T01:29:41.021Z,0
2017-01-14T01:30:40.970Z,0
2017-01-14T01:31:40.928Z,0
2017-01-14T01:32:40.709Z,0
2017-01-14T01:33:40.838Z,0
2017-01-14T01:34:40.991Z,0
2017-01-14T01:35:41.139Z,0
2017-01-14T01:36:41.937Z,0
2017-01-14T01:37:41.055Z,0
2017-01-14T01:38:41.428Z,0
2017-01-14T01:39:40.580Z,0
2017-01-14T01:40:41.444Z,0
2017-01-14T01:41:41.278Z,0
2017-01-14T01:42:40.479Z,0
2017-01-14T01:43:40.806Z,0
2017-01-14T01:44:40.368Z,0
2017-01-14T01:45:40.754Z,0
2017-01-14T01:46:41.054Z,0
2017-01-14T01:47:40.749Z,0
2017-01-14T01:48:41.085Z,0
2017-01-14T01:49:40.921Z,0
2017-01-14T01:50:40.559Z,0
2017-01-14T01:51:40.074Z,0
2017-01-14T01:52:40.431Z,0
2017-01-14T01:53:40.276Z,0
2017-01-14T01:54:40.831Z,0
2017-01-14T01:55:40.281Z,0
2017-01-14T01:56:40.812Z,0
2017-01-14T01:57:40.658Z,0
2017-01-14T01:58:40.540Z,0
2017-01-14T01:59:40.632Z,0
2017-01-14T02:00:40.066Z,0
2017-01-14T02:01:40.024Z,0
2017-01-14T02:02:39.612Z,0
2017-01-14T02:03:39.561Z,0
2017-01-14T02:04:40.259Z,0
2017-01-14T02:05:39.927Z,0
2017-01-14T02:06:39.885Z,0
2017-01-14T02:07:39.640Z,0
2017-01-14T02:08:39.726Z,0
2017-01-14T02:09:40.136Z,0
2017-01-14T02:10:39.255Z,0
2017-01-14T02:11:39.983Z,0
2017-01-14T02:12:39.934Z,0
2017-01-14T02:13:39.517Z,0
2017-01-14T02:14:39.096Z,0
2017-01-14T02:15:39.132Z,0
2017-01-14T02:16:39.575Z,0
2017-01-14T02:17:39.345Z,0
2017-01-14T02:18:39.773Z,0
2017-01-14T02:19:39.319Z,0
2017-01-14T02:20:39.906Z,0
2017-01-14T02:21:39.602Z,0
2017-01-14T02:22:39.644Z,0
2017-01-14T02:23:39.468Z,0
2017-01-14T02:24:39.433Z,0
2017-01-14T02:25:39.074Z,0
2017-01-14T02:26:38.719Z,0
2017-01-14T02:27:39.297Z,0
2017-01-14T02:28:38.920Z,0
2017-01-14T02:29:39.218Z,0
2017-01-14T02:30:39.246Z,0
2017-01-14T02:31:38.738Z,0
2017-01-14T02:32:38.697Z,0
2017-01-14T02:33:39.295Z,0
2017-01-14T02:34:38.659Z,0
2017-01-14T02:35:38.679Z,0
2017-01-14T02:36:38.528Z,0
2017-01-14T02:37:38.527Z,0
2017-01-14T02:38:38.444Z,0
2017-01-14T02:39:38.407Z,0
2017-01-14T02:40:38.938Z,0
2017-01-14T02:41:38.005Z,0
2017-01-14T02:42:38.662Z,0
2017-01-14T02:43:38.371Z,0
2017-01-14T02:44:38.483Z,0
2017-01-14T02:45:38.152Z,0
2017-01-14T02:46:38.562Z,0
2017-01-14T02:47:38.067Z,0
2017-01-14T02:48:37.633Z,0
2017-01-14T02:49:37.980Z,0
2017-01-14T02:50:38.267Z,0
2017-01-14T02:51:38.779Z,0
2017-01-14T02:52:38.259Z,0
2017-01-14T02:53:38.091Z,0
2017-01-14T02:54:38.146Z,0
2017-01-14T02:55:37.715Z,0
2017-01-14T02:56:37.679Z,0
2017-01-14T02:57:37.401Z,0
2017-01-14T02:58:38.656Z,0
2017-01-14T02:59:37.548Z,0
2017-01-14T03:00:37.959Z,0
2017-01-14T03:01:37.844Z,0
2017-01-14T03:02:37.426Z,0
2017-01-14T03:03:37.761Z,0
2017-01-14T03:04:37.335Z,0
2017-01-14T03:05:37.685Z,0
2017-01-14T03:06:37.638Z,0
2017-01-14T03:07:36.851Z,0
2017-01-14T03:08:37.188Z,0
2017-01-14T03:09:37.545Z,0
2017-01-14T03:10:37.209Z,0
2017-01-14T03:11:37.036Z,0
2017-01-14T03:12:36.625Z,0
2017-01-14T03:13:37.062Z,0
2017-01-14T03:14:36.999Z,0
2017-01-14T03:15:37.333Z,0
2017-01-14T03:16:37.208Z,0
2017-01-14T03:17:36.410Z,0
2017-01-14T03:18:36.476Z,0
2017-01-14T03:19:36.711Z,0
2017-01-14T03:20:37.037Z,0
2017-01-14T03:21:37.022Z,0
2017-01-14T03:22:36.199Z,0
2017-01-14T03:23:36.602Z,0
2017-01-14T03:24:35.710Z,0
2017-01-14T03:25:35.670Z,0
2017-01-14T03:26:36.412Z,0
2017-01-14T03:27:36.350Z,0
2017-01-14T03:28:36.695Z,0
2017-01-14T03:29:35.934Z,0
2017-01-14T03:30:36.376Z,0
2017-01-14T03:31:36.303Z,0
2017-01-14T03:32:36.600Z,0
2017-01-14T03:33:36.483Z,0
2017-01-14T03:34:36.086Z,0
2017-01-14T03:35:36.431Z,0
2017-01-14T03:36:35.201Z,0
2017-01-14T03:37:35.543Z,0
2017-01-14T03:38:35.891Z,0
2017-01-14T03:39:35.844Z,0
2017-01-14T03:40:36.207Z,0
2017-01-14T03:41:35.770Z,0
2017-01-14T03:42:35.716Z,0
2017-01-14T03:43:36.064Z,0
2017-01-14T03:44:35.654Z,0
2017-01-14T03:45:35.629Z,0
2017-01-14T03:46:35.571Z,0
2017-01-14T03:47:35.897Z,0
2017-01-14T03:48:35.490Z,0
2017-01-14T03:49:35.524Z,0
2017-01-14T03:50:35.828Z,0
2017-01-14T03:51:35.713Z,0
2017-01-14T03:52:35.392Z,0
2017-01-14T03:53:34.483Z,0
2017-01-14T03:54:35.595Z,0
2017-01-14T03:55:35.166Z,0
2017-01-14T03:56:34.737Z,0
2017-01-14T03:57:34.699Z,0
2017-01-14T03:58:48.780Z,0
2017-01-14T03:59:35.385Z,0
2017-01-14T04:00:35.344Z,0
2017-01-14T04:01:35.381Z,0
2017-01-14T04:02:34.608Z,0
2017-01-14T04:03:35.207Z,0
2017-01-14T04:04:34.782Z,0
2017-01-14T04:05:35.326Z,0
2017-01-14T04:06:34.693Z,0
2017-01-14T04:07:49.169Z,0
2017-01-14T04:08:35.103Z,0
2017-01-14T04:09:34.957Z,0
2017-01-14T04:10:34.155Z,0
2017-01-14T04:11:34.497Z,0
2017-01-14T04:12:34.829Z,0
2017-01-14T04:13:34.782Z,0
2017-01-14T04:14:33.204Z,0
2017-01-14T04:15:33.934Z,0
2017-01-14T04:16:34.775Z,0
2017-01-14T04:17:34.235Z,0
2017-01-14T04:18:34.630Z,0
2017-01-14T04:19:34.581Z,0
2017-01-14T04:20:34.520Z,0
2017-01-14T04:21:33.680Z,0
2017-01-14T04:22:34.075Z,0
2017-01-14T04:23:34.224Z,0
2017-01-14T04:24:34.039Z,0
2017-01-14T04:25:34.277Z,0
2017-01-14T04:26:34.262Z,0
2017-01-14T04:27:34.015Z,0
2017-01-14T04:28:34.162Z,0
2017-01-14T04:29:34.104Z,0
2017-01-14T04:30:33.675Z,0
2017-01-14T04:31:33.752Z,0
2017-01-14T04:32:33.602Z,0
2017-01-14T04:33:33.564Z,0
2017-01-14T04:34:33.544Z,0
2017-01-14T04:35:33.087Z,0
2017-01-14T04:36:33.825Z,0
2017-01-14T04:37:34.224Z,0
2017-01-14T04:38:32.948Z,0
2017-01-14T04:39:33.681Z,0
2017-01-14T04:40:33.644Z,0
2017-01-14T04:41:33.212Z,0
2017-01-14T04:42:33.206Z,0
2017-01-14T04:43:33.128Z,0
2017-01-14T04:44:33.082Z,0
2017-01-14T04:45:33.040Z,0
2017-01-14T04:46:32.998Z,0
2017-01-14T04:47:32.957Z,0
2017-01-14T04:48:32.528Z,0
2017-01-14T04:49:33.253Z,0
2017-01-14T04:50:32.540Z,0
2017-01-14T04:51:32.725Z,0
2017-01-14T04:52:32.769Z,0
2017-01-14T04:53:33.184Z,0
2017-01-14T04:54:47.181Z,0
2017-01-14T04:55:32.668Z,0
2017-01-14T04:56:32.577Z,0
2017-01-14T04:57:32.924Z,0
2017-01-14T04:58:33.005Z,0
2017-01-14T04:59:32.838Z,0
2017-01-14T05:00:32.792Z,0
2017-01-14T05:01:32.368Z,0
2017-01-14T05:02:32.702Z,0
2017-01-14T05:03:32.277Z,0
2017-01-14T05:04:32.234Z,0
2017-01-14T05:05:32.195Z,0
2017-01-14T05:06:32.704Z,0
2017-01-14T05:07:32.111Z,0
2017-01-14T05:08:32.449Z,0
2017-01-14T05:09:32.412Z,0
2017-01-14T05:10:32.556Z,0
2017-01-14T05:11:31.966Z,0
2017-01-14T05:12:31.897Z,0
2017-01-14T05:13:32.900Z,0
2017-01-14T05:14:32.280Z,0
2017-01-14T05:15:31.766Z,0
2017-01-14T05:16:31.733Z,0
2017-01-14T05:17:31.827Z,0
2017-01-14T05:18:31.651Z,0
2017-01-14T05:19:32.380Z,0
2017-01-14T05:20:31.591Z,0
2017-01-14T05:21:31.898Z,0
2017-01-14T05:22:31.859Z,0
2017-01-14T05:23:32.011Z,0
2017-01-14T05:24:31.395Z,0
2017-01-14T05:25:31.345Z,0
2017-01-14T05:26:32.034Z,0
2017-01-14T05:27:30.872Z,0
2017-01-14T05:28:31.255Z,0
2017-01-14T05:29:31.237Z,0
2017-01-14T05:30:30.814Z,0
2017-01-14T05:31:31.491Z,0
2017-01-14T05:32:31.504Z,0
2017-01-14T05:33:31.474Z,0
2017-01-14T05:34:30.301Z,0
2017-01-14T05:35:31.298Z,0
2017-01-14T05:36:31.291Z,0
2017-01-14T05:37:30.837Z,0
2017-01-14T05:38:31.174Z,0
2017-01-14T05:39:30.859Z,0
2017-01-14T05:40:31.095Z,0
2017-01-14T05:41:30.978Z,0
2017-01-14T05:42:30.621Z,0
2017-01-14T05:43:30.205Z,0
2017-01-14T05:44:30.542Z,0
2017-01-14T05:45:30.720Z,0
2017-01-14T05:46:30.473Z,0
2017-01-14T05:47:30.416Z,0
2017-01-14T05:48:30.758Z,0
2017-01-14T05:49:30.331Z,0
2017-01-14T05:50:30.115Z,0
2017-01-14T05:51:30.243Z,0
2017-01-14T05:52:30.584Z,0
2017-01-14T05:53:30.547Z,0
2017-01-14T05:54:30.120Z,0
2017-01-14T05:55:30.083Z,0
2017-01-14T05:56:30.490Z,0
2017-01-14T05:57:30.374Z,0
2017-01-14T05:58:29.947Z,0
2017-01-14T05:59:30.298Z,0
2017-01-14T06:00:30.243Z,0
2017-01-14T06:01:30.424Z,0
2017-01-14T06:02:29.791Z,0
2017-01-14T06:03:29.736Z,0
2017-01-14T06:04:29.316Z,0
2017-01-14T06:05:29.703Z,0
2017-01-14T06:06:29.997Z,0
2017-01-14T06:07:29.177Z,0
2017-01-14T06:08:30.086Z,0
2017-01-14T06:09:29.093Z,0
2017-01-14T06:10:29.061Z,0
2017-01-14T06:11:29.786Z,0
2017-01-14T06:12:29.357Z,0
2017-01-14T06:13:29.696Z,0
2017-01-14T06:14:28.882Z,0
2017-01-14T06:15:29.255Z,0
2017-01-14T06:16:28.802Z,0
2017-01-14T06:17:29.530Z,0
2017-01-14T06:18:28.720Z,0
2017-01-14T06:19:28.674Z,0
2017-01-14T06:20:28.631Z,0
2017-01-14T06:21:28.968Z,0
2017-01-14T06:22:29.320Z,0
2017-01-14T06:23:28.501Z,0
2017-01-14T06:24:28.452Z,0
2017-01-14T06:25:28.832Z,0
2017-01-14T06:26:28.891Z,0
2017-01-14T06:27:28.719Z,0
2017-01-14T06:28:28.673Z,0
2017-01-14T06:29:27.859Z,0
2017-01-14T06:30:28.986Z,0
2017-01-14T06:31:28.620Z,0
2017-01-14T06:32:43.440Z,0
2017-01-14T06:33:28.507Z,0
2017-01-14T06:34:28.030Z,0
2017-01-14T06:35:27.994Z,0
2017-01-14T06:36:28.344Z,0
2017-01-14T06:37:28.683Z,0
2017-01-14T06:38:28.251Z,0
2017-01-14T06:39:28.756Z,0
2017-01-14T06:40:28.169Z,0
2017-01-14T06:41:28.513Z,0
2017-01-14T06:42:28.170Z,0
2017-01-14T06:43:28.069Z,0
2017-01-14T06:44:28.028Z,0
2017-01-14T06:45:28.005Z,0
2017-01-14T06:46:27.906Z,0
2017-01-14T06:47:28.260Z,0
2017-01-14T06:48:27.434Z,0
2017-01-14T06:49:27.785Z,0
2017-01-14T06:50:27.358Z,0
2017-01-14T06:51:28.087Z,0
2017-01-14T06:52:28.040Z,0
2017-01-14T06:53:27.223Z,0
2017-01-14T06:54:27.570Z,0
2017-01-14T06:55:27.915Z,0
2017-01-14T06:56:27.868Z,0
2017-01-14T06:57:27.825Z,0
2017-01-14T06:58:27.409Z,0
2017-01-14T06:59:27.771Z,0
2017-01-14T07:00:27.707Z,0
2017-01-14T07:01:27.277Z,0
2017-01-14T07:02:27.239Z,0
2017-01-14T07:03:27.805Z,0
2017-01-14T07:04:27.532Z,0
2017-01-14T07:05:27.589Z,0
2017-01-14T07:06:27.068Z,0
2017-01-14T07:07:27.434Z,0
2017-01-14T07:08:27.451Z,5
2017-01-14T07:09:26.770Z,5
2017-01-14T07:10:27.283Z,5
2017-01-14T07:11:26.854Z,5
2017-01-14T07:12:27.194Z,5
2017-01-14T07:13:26.766Z,5
2017-01-14T07:14:26.729Z,5
2017-01-14T07:15:26.681Z,5
2017-01-14T07:16:27.149Z,5
2017-01-14T07:17:25.822Z,5
2017-01-14T07:18:26.942Z,5
2017-01-14T07:19:26.611Z,5
2017-01-14T07:20:26.467Z,5
2017-01-14T07:21:26.549Z,5
2017-01-14T07:22:26.782Z,5
2017-01-14T07:23:26.727Z,5
2017-01-14T07:24:26.317Z,10
2017-01-14T07:25:26.680Z,10
2017-01-14T07:26:26.713Z,10
2017-01-14T07:27:25.408Z,10
2017-01-14T07:28:26.243Z,10
2017-01-14T07:29:26.276Z,10
2017-01-14T07:30:26.052Z,10
2017-01-14T07:31:25.678Z,10
2017-01-14T07:32:25.989Z,10
2017-01-14T07:33:26.753Z,10
2017-01-14T07:34:26.371Z,10
2017-01-14T07:35:25.866Z,10
2017-01-14T07:36:25.798Z,15
2017-01-14T07:37:25.755Z,20
2017-01-14T07:38:25.738Z,20
2017-01-14T07:39:25.309Z,20
2017-01-14T07:40:26.018Z,25
2017-01-14T07:41:25.281Z,25
2017-01-14T07:42:25.941Z,25
2017-01-14T07:43:25.523Z,25
2017-01-14T07:44:25.850Z,30
2017-01-14T07:45:25.085Z,25
2017-01-14T07:46:25.397Z,25
2017-01-14T07:47:25.353Z,25
2017-01-14T07:48:25.284Z,25
2017-01-14T07:49:25.240Z,25
2017-01-14T07:50:25.471Z,25
2017-01-14T07:51:25.548Z,25
2017-01-14T07:52:24.736Z,25
2017-01-14T07:53:25.076Z,25
2017-01-14T07:54:25.039Z,25
2017-01-14T07:55:24.989Z,25
2017-01-14T07:56:24.952Z,30
2017-01-14T07:57:25.297Z,30
2017-01-14T07:58:25.276Z,30
2017-01-14T07:59:24.830Z,30
2017-01-14T08:00:24.778Z,25
2017-01-14T08:01:24.844Z,25
2017-01-14T08:02:24.777Z,25
2017-01-14T08:03:24.659Z,25
2017-01-14T08:04:25.002Z,30
2017-01-14T08:05:24.961Z,30
2017-01-14T08:06:24.912Z,30
2017-01-14T08:07:24.491Z,30
2017-01-14T08:08:24.066Z,30
2017-01-14T08:09:24.829Z,35
2017-01-14T08:10:24.448Z,35
2017-01-14T08:11:24.720Z,30
2017-01-14T08:12:24.661Z,30
2017-01-14T08:13:24.629Z,30
2017-01-14T08:14:24.189Z,35
2017-01-14T08:15:24.539Z,35
2017-01-14T08:16:24.226Z,35
2017-01-14T08:17:24.461Z,30
2017-01-14T08:18:23.638Z,35
2017-01-14T08:19:24.360Z,35
2017-01-14T08:20:24.319Z,30
2017-01-14T08:21:24.283Z,35
2017-01-14T08:22:23.853Z,35
2017-01-14T08:23:23.845Z,35
2017-01-14T08:24:23.812Z,30
2017-01-14T08:25:23.349Z,30
2017-01-14T08:26:24.071Z,35
2017-01-14T08:27:23.649Z,35
2017-01-14T08:28:23.985Z,35
2017-01-14T08:29:23.651Z,40
2017-01-14T08:30:23.562Z,45
2017-01-14T08:31:23.095Z,50
2017-01-14T08:32:23.553Z,45
2017-01-14T08:33:23.002Z,45
2017-01-14T08:34:23.360Z,40
2017-01-14T08:35:23.025Z,40
2017-01-14T08:36:23.736Z,40
2017-01-14T08:37:23.616Z,50
2017-01-14T08:38:22.897Z,55
2017-01-14T08:39:22.756Z,55
2017-01-14T08:40:23.103Z,60
2017-01-14T08:41:23.444Z,60
2017-01-14T08:42:23.406Z,55
2017-01-14T08:43:23.351Z,55
2017-01-14T08:44:22.975Z,60
2017-01-14T08:45:23.322Z,65
2017-01-14T08:46:22.838Z,70
2017-01-14T08:47:22.422Z,75
2017-01-14T08:48:23.151Z,80
2017-01-14T08:49:22.729Z,80
2017-01-14T08:50:23.061Z,70
2017-01-14T08:51:22.702Z,60
2017-01-14T08:52:21.823Z,60
2017-01-14T08:53:22.558Z,60
2017-01-14T08:54:22.513Z,55
2017-01-14T08:55:22.081Z,55
2017-01-14T08:56:22.432Z,55
2017-01-14T08:57:22.005Z,55
2017-01-14T08:58:21.573Z,55
2017-01-14T08:59:22.689Z,55
2017-01-14T09:00:22.254Z,55
2017-01-14T09:01:22.232Z,60
2017-01-14T09:02:22.217Z,65
2017-01-14T09:03:22.623Z,75
2017-01-14T09:04:22.477Z,75
2017-01-14T09:05:21.667Z,70
2017-01-14T09:06:21.629Z,80
2017-01-14T09:07:21.234Z,80
2017-01-14T09:08:21.537Z,85
2017-01-14T09:09:21.493Z,90
2017-01-14T09:10:21.452Z,90
2017-01-14T09:11:21.801Z,95
2017-01-14T09:12:21.754Z,100
2017-01-14T09:13:21.715Z,105
2017-01-14T09:14:21.679Z,105
2017-01-14T09:15:21.775Z,100
2017-01-14T09:16:21.199Z,105
2017-01-14T09:17:21.952Z,110
2017-01-14T09:18:21.308Z,115
2017-01-14T09:19:21.554Z,115
2017-01-14T09:20:21.806Z,110
2017-01-14T09:21:21.425Z,120
2017-01-14T09:22:21.334Z,120
2017-01-14T09:23:20.912Z,115
2017-01-14T09:24:21.636Z,110
2017-01-14T09:25:20.830Z,105
2017-01-14T09:26:20.904Z,100
2017-01-14T09:27:20.739Z,95
2017-01-14T09:28:21.094Z,85
2017-01-14T09:29:21.443Z,85
2017-01-14T09:30:20.998Z,95
2017-01-14T09:31:20.967Z,90
2017-01-14T09:32:20.946Z,85
2017-01-14T09:33:21.263Z,95
2017-01-14T09:34:20.837Z,100
2017-01-14T09:35:21.199Z,90
2017-01-14T09:36:20.755Z,95
2017-01-14T09:37:21.098Z,95
2017-01-14T09:38:19.903Z,90
2017-01-14T09:39:20.633Z,85
2017-01-14T09:40:20.975Z,85
2017-01-14T09:41:19.771Z,85
2017-01-14T09:42:20.900Z,75
2017-01-14T09:43:20.473Z,80
2017-01-14T09:44:20.038Z,80
2017-01-14T09:45:20.386Z,75
2017-01-14T09:46:19.987Z,70
2017-01-14T09:47:20.301Z,75
2017-01-14T09:48:20.642Z,80
2017-01-14T09:49:20.233Z,80
2017-01-14T09:50:19.800Z,70
2017-01-14T09:51:19.366Z,75
2017-01-14T09:52:19.730Z,80
2017-01-14T09:53:20.061Z,85
2017-01-14T09:54:20.058Z,75
2017-01-14T09:55:20.411Z,80
2017-01-14T09:56:20.310Z,85
2017-01-14T09:57:19.547Z,80
2017-01-14T09:58:19.072Z,85
2017-01-14T09:59:20.174Z,100
2017-01-14T10:00:20.143Z,95
2017-01-14T10:01:19.717Z,80
2017-01-14T10:02:19.678Z,100
2017-01-14T10:03:19.635Z,100
2017-01-14T10:04:19.598Z,95
2017-01-14T10:05:19.621Z,95
2017-01-14T10:06:20.096Z,95
2017-01-14T10:07:19.854Z,80
2017-01-14T10:08:18.656Z,80
2017-01-14T10:09:19.005Z,80
2017-01-14T10:10:19.739Z,85
2017-01-14T10:11:19.724Z,65
2017-01-14T10:12:19.268Z,60
2017-01-14T10:13:19.624Z,75
2017-01-14T10:14:19.192Z,95
2017-01-14T10:15:19.149Z,100
2017-01-14T10:16:19.103Z,95
2017-01-14T10:17:18.285Z,85
2017-01-14T10:18:19.020Z,85
2017-01-14T10:19:18.204Z,80
2017-01-14T10:20:19.319Z,90
2017-01-14T10:21:18.891Z,95
2017-01-14T10:22:19.248Z,100
2017-01-14T10:24:18.758Z,90
2017-01-14T10:25:18.335Z,90
2017-01-14T10:26:18.690Z,85
2017-01-14T10:27:18.355Z,105
2017-01-14T10:28:19.039Z,120
2017-01-14T10:29:18.945Z,105
2017-01-14T10:30:18.906Z,150
2017-01-14T10:31:18.875Z,150
2017-01-14T10:32:18.830Z,145
2017-01-14T10:33:18.786Z,150
2017-01-14T10:34:18.348Z,140
2017-01-14T10:35:18.314Z,145
2017-01-14T10:36:18.273Z,150
2017-01-14T10:37:18.274Z,150
2017-01-14T10:38:18.195Z,135
2017-01-14T10:39:18.532Z,125
2017-01-14T10:40:17.804Z,125
2017-01-14T10:41:18.460Z,120
2017-01-14T10:42:17.642Z,120
2017-01-14T10:43:17.980Z,130
2017-01-14T10:44:17.172Z,125
2017-01-14T10:45:17.928Z,140
2017-01-14T10:46:17.472Z,145
2017-01-14T10:47:17.441Z,145
2017-01-14T10:48:17.775Z,145
2017-01-14T10:49:17.752Z,130
2017-01-14T10:50:18.080Z,150
2017-01-14T10:51:18.045Z,145
2017-01-14T10:53:17.564Z,140
2017-01-14T10:54:17.924Z,135
2017-01-14T10:55:17.886Z,120
2017-01-14T10:56:17.447Z,120
2017-01-14T10:57:17.413Z,135
2017-01-14T10:58:17.751Z,145
2017-01-14T10:59:17.327Z,135
2017-01-14T11:00:17.286Z,130
2017-01-14T11:01:17.244Z,130
2017-01-14T11:02:17.666Z,140
2017-01-14T11:03:16.779Z,155
2017-01-14T11:04:17.512Z,145
2017-01-14T11:05:17.110Z,125
2017-01-14T11:06:17.093Z,140
2017-01-14T11:07:17.383Z,145
2017-01-14T11:08:16.956Z,135
2017-01-14T11:09:16.540Z,130
2017-01-14T11:10:16.875Z,120
2017-01-14T11:11:17.227Z,120
2017-01-14T11:12:17.179Z,130
2017-01-14T11:13:16.750Z,130
2017-01-14T11:14:17.127Z,135
2017-01-14T11:15:17.050Z,135
2017-01-14T11:16:16.243Z,140
2017-01-14T11:17:16.984Z,115
2017-01-14T11:18:16.935Z,110
2017-01-14T11:19:16.762Z,125
2017-01-14T11:20:16.996Z,145
2017-01-14T11:21:16.540Z,130
2017-01-14T11:22:16.002Z,130
2017-01-14T11:23:16.750Z,125
2017-01-14T11:24:16.297Z,105
2017-01-14T11:25:16.297Z,100
2017-01-14T11:26:16.221Z,100
2017-01-14T11:27:16.183Z,95
2017-01-14T11:28:16.640Z,90
2017-01-14T11:29:15.723Z,85
2017-01-14T11:30:16.654Z,85
2017-01-14T11:31:16.413Z,100
2017-01-14T11:32:15.979Z,95
2017-01-14T11:33:15.936Z,90
2017-01-14T11:34:15.903Z,95
2017-01-14T11:35:15.480Z,100
2017-01-14T11:36:16.209Z,140
2017-01-14T11:37:15.835Z,150
2017-01-14T11:38:16.124Z,145
2017-01-14T11:39:15.715Z,140
2017-01-14T11:40:15.270Z,135
2017-01-14T11:41:16.053Z,125
2017-01-14T11:42:15.955Z,125
2017-01-14T11:43:15.529Z,145
2017-01-14T11:44:14.334Z,160
2017-01-14T11:45:15.443Z,165
2017-01-14T11:46:15.402Z,160
2017-01-14T11:47:15.753Z,140
2017-01-14T11:48:15.015Z,120
2017-01-14T11:49:15.277Z,110
2017-01-14T11:50:14.872Z,110
2017-01-14T11:51:15.581Z,120
2017-01-14T11:52:15.203Z,130
2017-01-14T11:53:15.118Z,130
2017-01-14T11:54:15.075Z,130
2017-01-14T11:55:14.289Z,120
2017-01-14T11:56:15.020Z,105
2017-01-14T11:57:14.577Z,100
2017-01-14T11:58:14.916Z,110
2017-01-14T11:59:15.283Z,145
2017-01-14T12:00:14.833Z,170
2017-01-14T12:01:15.184Z,195
2017-01-14T12:02:15.137Z,200
2017-01-14T12:03:13.962Z,210
2017-01-14T12:04:14.668Z,210
2017-01-14T12:05:14.631Z,225
2017-01-14T12:06:14.598Z,235
2017-01-14T12:07:14.933Z,240
2017-01-14T12:08:14.971Z,240
2017-01-14T12:09:14.462Z,225
2017-01-14T12:10:14.424Z,215
2017-01-14T12:11:13.617Z,205
2017-01-14T12:12:14.336Z,195
2017-01-14T12:13:14.310Z,190
2017-01-14T12:14:14.750Z,185
2017-01-14T12:15:13.839Z,160
2017-01-14T12:16:14.568Z,190
2017-01-14T12:17:14.147Z,220
2017-01-14T12:18:13.360Z,225
2017-01-14T12:19:14.061Z,225
2017-01-14T12:20:13.640Z,190
2017-01-14T12:21:14.364Z,170
2017-01-14T12:22:14.323Z,180
2017-01-14T12:23:13.508Z,170
2017-01-14T12:24:14.014Z,170
2017-01-14T12:25:13.824Z,175
2017-01-14T12:26:13.779Z,170
2017-01-14T12:27:13.350Z,150
2017-01-14T12:28:13.692Z,160
2017-01-14T12:29:13.659Z,170
2017-01-14T12:30:13.617Z,165
2017-01-14T12:31:14.048Z,170
2017-01-14T12:32:13.928Z,175
2017-01-14T12:33:13.544Z,175
2017-01-14T12:34:13.825Z,175
2017-01-14T12:35:13.030Z,175
2017-01-14T12:36:13.767Z,175
2017-01-14T12:37:13.753Z,170
2017-01-14T12:38:13.299Z,170
2017-01-14T12:39:13.637Z,170
2017-01-14T12:40:13.217Z,170
2017-01-14T12:41:13.174Z,165
2017-01-14T12:42:13.142Z,165
2017-01-14T12:43:13.488Z,150
2017-01-14T12:44:13.053Z,155
2017-01-14T12:45:12.629Z,155
2017-01-14T12:46:13.002Z,155
2017-01-14T12:47:13.320Z,155
2017-01-14T12:48:13.291Z,155
2017-01-14T12:49:12.854Z,150
2017-01-14T12:50:12.807Z,150
2017-01-14T12:51:13.179Z,155
2017-01-14T12:52:12.726Z,155
2017-01-14T12:53:12.723Z,160
2017-01-14T12:54:12.661Z,160
2017-01-14T12:55:12.222Z,155
2017-01-14T12:56:12.201Z,145
2017-01-14T12:57:12.524Z,140
2017-01-14T12:58:12.488Z,135
2017-01-14T12:59:12.455Z,140
2017-01-14T13:00:12.790Z,140
2017-01-14T13:01:11.981Z,140
2017-01-14T13:02:12.720Z,115
2017-01-14T13:03:12.290Z,90
2017-01-14T13:04:12.635Z,80
2017-01-14T13:05:12.584Z,105
2017-01-14T13:06:12.577Z,125
2017-01-14T13:07:11.775Z,135
2017-01-14T13:08:12.104Z,150
2017-01-14T13:09:12.427Z,150
2017-01-14T13:10:12.381Z,135
2017-01-14T13:11:12.339Z,125
2017-01-14T13:12:12.313Z,125
2017-01-14T13:13:11.124Z,130
2017-01-14T13:14:11.068Z,140
2017-01-14T13:15:11.781Z,140
2017-01-14T13:16:12.183Z,145
2017-01-14T13:17:11.715Z,150
2017-01-14T13:18:11.287Z,155
2017-01-14T13:19:12.018Z,160
2017-01-14T13:20:11.974Z,155
2017-01-14T13:21:10.848Z,155
2017-01-14T13:22:11.512Z,140
2017-01-14T13:23:11.481Z,145
2017-01-14T13:24:11.434Z,150
2017-01-14T13:25:11.532Z,145
2017-01-14T13:26:10.961Z,145
2017-01-14T13:27:11.899Z,145
2017-01-14T13:28:11.647Z,145
2017-01-14T13:29:10.453Z,135
2017-01-14T13:30:11.179Z,125
2017-01-14T13:31:11.533Z,110
2017-01-14T13:32:11.496Z,120
2017-01-14T13:33:11.503Z,120
2017-01-14T13:34:11.024Z,125
2017-01-14T13:35:10.977Z,125
2017-01-14T13:36:10.170Z,125
2017-01-14T13:37:11.289Z,125
2017-01-14T13:38:10.865Z,125
2017-01-14T13:39:11.112Z,120
2017-01-14T13:40:10.773Z,115
2017-01-14T13:41:11.116Z,110
2017-01-14T13:42:10.320Z,110
2017-01-14T13:43:11.036Z,115
2017-01-14T13:44:10.618Z,120
2017-01-14T13:45:10.185Z,120
2017-01-14T13:46:10.914Z,125
2017-01-14T13:47:10.096Z,125
2017-01-14T13:48:10.474Z,125
2017-01-14T13:49:10.409Z,125
2017-01-14T13:50:09.590Z,125
2017-01-14T13:51:10.321Z,120
2017-01-14T13:52:09.890Z,115
2017-01-14T13:53:10.240Z,115
2017-01-14T13:54:09.818Z,110
2017-01-14T13:55:10.161Z,95
2017-01-14T13:56:09.746Z,80
2017-01-14T13:57:10.504Z,75
2017-01-14T13:58:10.041Z,75
2017-01-14T13:59:10.001Z,80
2017-01-14T14:00:10.339Z,75
2017-01-14T14:01:09.922Z,65
2017-01-14T14:02:09.874Z,55
2017-01-14T14:03:09.826Z,55
2017-01-14T14:04:10.176Z,60
2017-01-14T14:05:10.132Z,55
2017-01-14T14:06:09.705Z,65
2017-01-14T14:07:09.675Z,75
2017-01-14T14:08:10.036Z,85
2017-01-14T14:09:09.204Z,95
2017-01-14T14:10:09.167Z,95
2017-01-14T14:11:09.501Z,90
2017-01-14T14:12:09.849Z,75
2017-01-14T14:13:09.435Z,75
2017-01-14T14:14:09.392Z,75
2017-01-14T14:15:09.338Z,80
2017-01-14T14:16:08.525Z,75
2017-01-14T14:17:09.647Z,75
2017-01-14T14:18:08.829Z,85
2017-01-14T14:19:09.174Z,85
2017-01-14T14:20:09.133Z,80
2017-01-14T14:21:09.097Z,75
2017-01-14T14:22:09.437Z,70
2017-01-14T14:23:09.028Z,70
2017-01-14T14:24:08.975Z,70
2017-01-14T14:25:08.547Z,70
2017-01-14T14:26:08.911Z,65